sensor_id;sensor_type;location;lat;lon;timestamp;temperature;humidity
56308;DHT22;42217;50.422;7.210;2022-10-16T08:15:19;14.90;99.90
56308;DHT22;42217;50.422;7.210;2022-10-16T08:17:57;14.80;99.90
56308;DHT22;42217;50.422;7.210;2022-10-16T08:20:23;14.90;99.90
56308;DHT22;42217;50.422;7.210;2022-10-16T08:22:50;15.00;99.90
56308;DHT22;42217;50.422;7.210;2022-10-16T08:25:17;15.20;99.90
56308;DHT22;42217;50.422;7.210;2022-10-16T08:27:46;15.30;99.90
56308;DHT22;42217;50.422;7.210;2022-10-16T08:30:13;15.40;99.90
56308;DHT22;42217;50.422;7.210;2022-10-16T08:32:39;15.50;99.90
56308;DHT22;42217;50.422;7.210;2022-10-16T08:37:35;15.60;99.90
56308;DHT22;42217;50.422;7.210;2022-10-16T08:40:01;15.60;99.90
56308;DHT22;42217;50.422;7.210;2022-10-16T08:50:37;15.50;99.90
56308;DHT22;42217;50.422;7.210;2022-10-16T08:53:05;15.50;99.90
56308;DHT22;42217;50.422;7.210;2022-10-16T08:58:18;15.80;99.90
56308;DHT22;42217;50.422;7.210;2022-10-16T09:00:47;15.90;99.90
56308;DHT22;42217;50.422;7.210;2022-10-16T09:03:35;16.10;99.90
56308;DHT22;42217;50.422;7.210;2022-10-16T09:11:32;16.60;99.90
56308;DHT22;42217;50.422;7.210;2022-10-16T09:16:57;16.60;99.90
56308;DHT22;42217;50.422;7.210;2022-10-16T09:19:36;16.60;99.90
56308;DHT22;42217;50.422;7.210;2022-10-16T09:22:14;16.60;99.90
56308;DHT22;42217;50.422;7.210;2022-10-16T09:24:40;16.70;99.90
56308;DHT22;42217;50.422;7.210;2022-10-16T09:27:11;16.80;99.90
56308;DHT22;42217;50.422;7.210;2022-10-16T09:29:36;16.80;98.60
56308;DHT22;42217;50.422;7.210;2022-10-16T09:32:18;16.80;99.90
56308;DHT22;42217;50.422;7.210;2022-10-16T09:34:50;17.00;94.30
56308;DHT22;42217;50.422;7.210;2022-10-16T09:37:20;17.00;98.80
56308;DHT22;42217;50.422;7.210;2022-10-16T09:39:52;16.90;95.10
56308;DHT22;42217;50.422;7.210;2022-10-16T09:42:35;16.80;97.10
56308;DHT22;42217;50.422;7.210;2022-10-16T09:45:03;16.80;96.90
56308;DHT22;42217;50.422;7.210;2022-10-16T09:47:30;16.70;97.20
56308;DHT22;42217;50.422;7.210;2022-10-16T09:50:00;16.70;97.30
56308;DHT22;42217;50.422;7.210;2022-10-16T09:52:28;16.70;96.00
56308;DHT22;42217;50.422;7.210;2022-10-16T09:55:23;16.60;94.50
56308;DHT22;42217;50.422;7.210;2022-10-16T09:57:52;16.60;99.20
56308;DHT22;42217;50.422;7.210;2022-10-16T10:00:18;16.60;99.90
56308;DHT22;42217;50.422;7.210;2022-10-16T10:02:45;16.60;99.90
56308;DHT22;42217;50.422;7.210;2022-10-16T10:05:37;16.60;96.90
56308;DHT22;42217;50.422;7.210;2022-10-16T10:08:04;16.60;96.30
56308;DHT22;42217;50.422;7.210;2022-10-16T10:10:39;16.70;95.30
56308;DHT22;42217;50.422;7.210;2022-10-16T10:13:18;16.80;92.40
56308;DHT22;42217;50.422;7.210;2022-10-16T10:15:45;16.90;91.80
56308;DHT22;42217;50.422;7.210;2022-10-16T10:18:21;17.00;93.60
56308;DHT22;42217;50.422;7.210;2022-10-16T10:21:02;17.10;91.80
56308;DHT22;42217;50.422;7.210;2022-10-16T10:23:29;17.40;87.10
56308;DHT22;42217;50.422;7.210;2022-10-16T10:26:04;17.60;87.50
56308;DHT22;42217;50.422;7.210;2022-10-16T10:28:47;17.50;79.00
56308;DHT22;42217;50.422;7.210;2022-10-16T10:39:47;17.50;80.70
56308;DHT22;42217;50.422;7.210;2022-10-16T10:42:20;17.50;84.20
56308;DHT22;42217;50.422;7.210;2022-10-16T10:50:56;17.60;81.50
56308;DHT22;42217;50.422;7.210;2022-10-16T10:53:48;17.80;75.70
56308;DHT22;42217;50.422;7.210;2022-10-16T11:02:22;17.80;80.10
56308;DHT22;42217;50.422;7.210;2022-10-16T11:05:42;17.80;88.30
56308;DHT22;42217;50.422;7.210;2022-10-16T11:10:54;18.00;81.10
56308;DHT22;42217;50.422;7.210;2022-10-16T11:13:26;18.20;74.30
56308;DHT22;42217;50.422;7.210;2022-10-16T11:15:57;18.50;68.10
56308;DHT22;42217;50.422;7.210;2022-10-16T11:18:33;18.60;58.40
56308;DHT22;42217;50.422;7.210;2022-10-16T11:21:07;18.70;44.80
56308;DHT22;42217;50.422;7.210;2022-10-16T11:23:41;18.90;46.70
56308;DHT22;42217;50.422;7.210;2022-10-16T11:26:21;19.00;33.60
56308;DHT22;42217;50.422;7.210;2022-10-16T11:28:50;19.20;42.60
56308;DHT22;42217;50.422;7.210;2022-10-16T11:31:37;19.40;19.20
56308;DHT22;42217;50.422;7.210;2022-10-16T11:37:19;19.40;35.60
56308;DHT22;42217;50.422;7.210;2022-10-16T11:39:48;19.50;1.00
56308;DHT22;42217;50.422;7.210;2022-10-16T11:42:36;19.40;6.60
56308;DHT22;42217;50.422;7.210;2022-10-16T11:50:20;19.10;17.30
56308;DHT22;42217;50.422;7.210;2022-10-16T11:55:38;19.10;34.10
56308;DHT22;42217;50.422;7.210;2022-10-16T12:06:36;19.90;1.00
56308;DHT22;42217;50.422;7.210;2022-10-16T12:09:03;19.80;1.70
56308;DHT22;42217;50.422;7.210;2022-10-16T12:16:58;19.90;9.30
56308;DHT22;42217;50.422;7.210;2022-10-16T12:19:29;20.10;13.00
56308;DHT22;42217;50.422;7.210;2022-10-16T12:21:58;20.10;11.80
56308;DHT22;42217;50.422;7.210;2022-10-16T12:24:42;20.00;1.00
56308;DHT22;42217;50.422;7.210;2022-10-16T12:27:30;19.70;6.70
56308;DHT22;42217;50.422;7.210;2022-10-16T12:29:58;19.40;22.70
56308;DHT22;42217;50.422;7.210;2022-10-16T12:32:32;19.30;29.70
56308;DHT22;42217;50.422;7.210;2022-10-16T12:35:00;19.50;23.90
56308;DHT22;42217;50.422;7.210;2022-10-16T12:37:35;19.70;11.40
56308;DHT22;42217;50.422;7.210;2022-10-16T12:40:23;19.60;24.80
56308;DHT22;42217;50.422;7.210;2022-10-16T12:42:50;19.70;26.10
56308;DHT22;42217;50.422;7.210;2022-10-16T12:47:52;20.00;6.50
56308;DHT22;42217;50.422;7.210;2022-10-16T12:52:54;19.60;27.50
56308;DHT22;42217;50.422;7.210;2022-10-16T12:55:21;19.60;27.10
56308;DHT22;42217;50.422;7.210;2022-10-16T13:00:45;19.40;31.90
56308;DHT22;42217;50.422;7.210;2022-10-16T13:09:28;19.20;51.50
56308;DHT22;42217;50.422;7.210;2022-10-16T13:17:52;19.60;54.70
56308;DHT22;42217;50.422;7.210;2022-10-16T13:20:16;19.90;44.60
56308;DHT22;42217;50.422;7.210;2022-10-16T13:28:09;19.90;48.50
56308;DHT22;42217;50.422;7.210;2022-10-16T13:30:43;20.20;50.70
56308;DHT22;42217;50.422;7.210;2022-10-16T13:33:16;20.50;30.00
56308;DHT22;42217;50.422;7.210;2022-10-16T13:35:52;20.80;20.00
56308;DHT22;42217;50.422;7.210;2022-10-16T13:38:20;20.80;20.50
56308;DHT22;42217;50.422;7.210;2022-10-16T13:40:50;20.80;18.30
56308;DHT22;42217;50.422;7.210;2022-10-16T13:43:19;20.70;16.50
56308;DHT22;42217;50.422;7.210;2022-10-16T13:45:57;20.70;21.50
56308;DHT22;42217;50.422;7.210;2022-10-16T13:48:23;20.50;32.40
56308;DHT22;42217;50.422;7.210;2022-10-16T13:53:33;20.60;22.20
56308;DHT22;42217;50.422;7.210;2022-10-16T13:56:01;20.70;17.60
56308;DHT22;42217;50.422;7.210;2022-10-16T13:58:28;20.50;25.70
56308;DHT22;42217;50.422;7.210;2022-10-16T14:01:19;20.30;34.80
56308;DHT22;42217;50.422;7.210;2022-10-16T14:03:46;20.20;35.70
56308;DHT22;42217;50.422;7.210;2022-10-16T14:06:21;20.00;38.70
56308;DHT22;42217;50.422;7.210;2022-10-16T14:11:29;19.60;57.20
56308;DHT22;42217;50.422;7.210;2022-10-16T14:13:55;19.50;61.80
56308;DHT22;42217;50.422;7.210;2022-10-16T14:16:27;19.50;70.40
56308;DHT22;42217;50.422;7.210;2022-10-16T14:21:21;19.50;69.60
56308;DHT22;42217;50.422;7.210;2022-10-16T14:23:47;19.30;73.40
56308;DHT22;42217;50.422;7.210;2022-10-16T14:26:19;19.40;78.00
56308;DHT22;42217;50.422;7.210;2022-10-16T14:28:47;19.40;75.00
56308;DHT22;42217;50.422;7.210;2022-10-16T14:33:45;19.30;78.10
56308;DHT22;42217;50.422;7.210;2022-10-16T14:36:16;19.20;83.60
56308;DHT22;42217;50.422;7.210;2022-10-16T14:39:04;19.20;86.60
56308;DHT22;42217;50.422;7.210;2022-10-16T14:41:35;19.00;90.00
56308;DHT22;42217;50.422;7.210;2022-10-16T14:44:06;19.00;91.50
56308;DHT22;42217;50.422;7.210;2022-10-16T14:46:35;19.00;91.70
56308;DHT22;42217;50.422;7.210;2022-10-16T14:49:18;19.00;91.70
56308;DHT22;42217;50.422;7.210;2022-10-16T14:51:46;19.10;90.30
56308;DHT22;42217;50.422;7.210;2022-10-16T14:54:18;19.20;91.20
56308;DHT22;42217;50.422;7.210;2022-10-16T14:59:27;19.20;89.60
56308;DHT22;42217;50.422;7.210;2022-10-16T15:01:54;19.20;90.50
56308;DHT22;42217;50.422;7.210;2022-10-16T15:04:20;19.30;90.30
56308;DHT22;42217;50.422;7.210;2022-10-16T15:06:45;19.10;90.00
56308;DHT22;42217;50.422;7.210;2022-10-16T15:09:11;19.00;91.70
56308;DHT22;42217;50.422;7.210;2022-10-16T15:11:37;18.90;92.50
56308;DHT22;42217;50.422;7.210;2022-10-16T15:14:05;18.70;94.70
56308;DHT22;42217;50.422;7.210;2022-10-16T15:16:31;18.50;95.60
56308;DHT22;42217;50.422;7.210;2022-10-16T15:18:57;18.40;95.80
56308;DHT22;42217;50.422;7.210;2022-10-16T15:21:31;18.20;98.10
56308;DHT22;42217;50.422;7.210;2022-10-16T15:23:58;18.10;99.50
56308;DHT22;42217;50.422;7.210;2022-10-16T15:26:29;18.00;99.90
56308;DHT22;42217;50.422;7.210;2022-10-16T15:28:56;18.00;99.90
56308;DHT22;42217;50.422;7.210;2022-10-16T15:31:23;17.80;99.90
56308;DHT22;42217;50.422;7.210;2022-10-16T15:33:51;17.80;99.90
56308;DHT22;42217;50.422;7.210;2022-10-16T15:36:32;17.70;99.90
56308;DHT22;42217;50.422;7.210;2022-10-16T15:39:19;17.60;99.90
56308;DHT22;42217;50.422;7.210;2022-10-16T15:41:46;17.50;99.90
56308;DHT22;42217;50.422;7.210;2022-10-16T15:44:17;17.60;99.90
56308;DHT22;42217;50.422;7.210;2022-10-16T15:46:43;17.60;99.90
56308;DHT22;42217;50.422;7.210;2022-10-16T15:49:09;17.50;99.90
56308;DHT22;42217;50.422;7.210;2022-10-16T15:51:39;17.40;99.90
56308;DHT22;42217;50.422;7.210;2022-10-16T15:54:05;17.30;99.90
56308;DHT22;42217;50.422;7.210;2022-10-16T15:56:30;17.30;99.90
56308;DHT22;42217;50.422;7.210;2022-10-16T15:58:59;17.20;99.90
56308;DHT22;42217;50.422;7.210;2022-10-16T16:01:26;17.20;99.90
56308;DHT22;42217;50.422;7.210;2022-10-16T16:03:55;17.10;99.90
56308;DHT22;42217;50.422;7.210;2022-10-16T16:06:22;17.10;99.90
56308;DHT22;42217;50.422;7.210;2022-10-16T16:08:49;17.10;99.90
56308;DHT22;42217;50.422;7.210;2022-10-16T16:11:16;17.10;99.90
56308;DHT22;42217;50.422;7.210;2022-10-16T16:13:42;17.10;99.90
56308;DHT22;42217;50.422;7.210;2022-10-16T16:16:13;17.00;99.90
56308;DHT22;42217;50.422;7.210;2022-10-16T16:18:39;16.90;99.90
56308;DHT22;42217;50.422;7.210;2022-10-16T16:21:05;16.70;99.90
56308;DHT22;42217;50.422;7.210;2022-10-16T16:23:31;16.70;99.90
56308;DHT22;42217;50.422;7.210;2022-10-16T16:26:14;16.80;99.90
56308;DHT22;42217;50.422;7.210;2022-10-16T16:28:42;16.70;99.90
56308;DHT22;42217;50.422;7.210;2022-10-16T16:31:08;16.60;99.90
56308;DHT22;42217;50.422;7.210;2022-10-16T16:33:34;16.50;99.90
56308;DHT22;42217;50.422;7.210;2022-10-16T16:36:02;16.50;99.90
56308;DHT22;42217;50.422;7.210;2022-10-16T16:38:29;16.50;99.90
56308;DHT22;42217;50.422;7.210;2022-10-16T16:40:55;16.40;99.90
56308;DHT22;42217;50.422;7.210;2022-10-16T16:43:27;16.40;99.90
56308;DHT22;42217;50.422;7.210;2022-10-16T16:45:53;16.20;99.90
56308;DHT22;42217;50.422;7.210;2022-10-16T16:48:20;16.20;99.90
56308;DHT22;42217;50.422;7.210;2022-10-16T16:50:46;16.20;99.90
56308;DHT22;42217;50.422;7.210;2022-10-16T16:53:12;16.20;99.90
56308;DHT22;42217;50.422;7.210;2022-10-16T16:55:39;16.20;99.90
56308;DHT22;42217;50.422;7.210;2022-10-16T16:58:05;16.20;99.90
56308;DHT22;42217;50.422;7.210;2022-10-16T17:00:31;16.20;99.90
56308;DHT22;42217;50.422;7.210;2022-10-16T17:02:57;16.20;99.90
56308;DHT22;42217;50.422;7.210;2022-10-16T17:05:23;16.20;99.90
56308;DHT22;42217;50.422;7.210;2022-10-16T17:07:49;16.20;99.90
56308;DHT22;42217;50.422;7.210;2022-10-16T17:10:15;16.20;99.90
56308;DHT22;42217;50.422;7.210;2022-10-16T17:12:41;16.30;99.90
56308;DHT22;42217;50.422;7.210;2022-10-16T17:15:07;16.30;99.90
56308;DHT22;42217;50.422;7.210;2022-10-16T17:17:33;16.10;99.90
56308;DHT22;42217;50.422;7.210;2022-10-16T17:19:59;16.00;99.90
56308;DHT22;42217;50.422;7.210;2022-10-16T17:22:25;15.90;99.90
56308;DHT22;42217;50.422;7.210;2022-10-16T17:24:54;15.70;99.90
56308;DHT22;42217;50.422;7.210;2022-10-16T17:27:20;15.70;99.90
56308;DHT22;42217;50.422;7.210;2022-10-16T17:29:50;15.80;99.90
56308;DHT22;42217;50.422;7.210;2022-10-16T17:32:15;15.80;99.90
56308;DHT22;42217;50.422;7.210;2022-10-16T17:34:45;15.70;99.90
56308;DHT22;42217;50.422;7.210;2022-10-16T17:37:11;15.60;99.90
56308;DHT22;42217;50.422;7.210;2022-10-16T17:39:37;15.40;99.90
56308;DHT22;42217;50.422;7.210;2022-10-16T17:42:04;15.40;99.90
56308;DHT22;42217;50.422;7.210;2022-10-16T17:44:30;15.40;99.90
56308;DHT22;42217;50.422;7.210;2022-10-16T17:46:56;15.30;99.90
56308;DHT22;42217;50.422;7.210;2022-10-16T17:49:22;15.40;99.90
56308;DHT22;42217;50.422;7.210;2022-10-16T17:51:52;15.60;99.90
56308;DHT22;42217;50.422;7.210;2022-10-16T17:54:20;15.50;99.90
56308;DHT22;42217;50.422;7.210;2022-10-16T17:56:48;15.40;99.90
56308;DHT22;42217;50.422;7.210;2022-10-16T17:59:14;15.40;99.90
56308;DHT22;42217;50.422;7.210;2022-10-16T18:01:40;15.40;99.90
56308;DHT22;42217;50.422;7.210;2022-10-16T18:04:13;15.20;99.90
56308;DHT22;42217;50.422;7.210;2022-10-16T18:06:40;15.20;99.90
56308;DHT22;42217;50.422;7.210;2022-10-16T18:09:08;15.20;99.90
56308;DHT22;42217;50.422;7.210;2022-10-16T18:11:35;15.30;99.90
56308;DHT22;42217;50.422;7.210;2022-10-16T18:14:01;15.40;99.90
56308;DHT22;42217;50.422;7.210;2022-10-16T18:16:29;15.30;99.90
56308;DHT22;42217;50.422;7.210;2022-10-16T18:18:56;15.20;99.90
56308;DHT22;42217;50.422;7.210;2022-10-16T18:21:22;15.30;99.90
56308;DHT22;42217;50.422;7.210;2022-10-16T18:23:48;15.20;99.90
56308;DHT22;42217;50.422;7.210;2022-10-16T18:26:15;15.10;99.90
56308;DHT22;42217;50.422;7.210;2022-10-16T18:28:42;15.10;99.90
56308;DHT22;42217;50.422;7.210;2022-10-16T18:31:15;15.10;99.90
56308;DHT22;42217;50.422;7.210;2022-10-16T18:33:42;15.10;99.90
56308;DHT22;42217;50.422;7.210;2022-10-16T18:36:28;15.00;99.90
56308;DHT22;42217;50.422;7.210;2022-10-16T18:38:55;15.00;99.90
56308;DHT22;42217;50.422;7.210;2022-10-16T18:41:26;15.00;99.90
56308;DHT22;42217;50.422;7.210;2022-10-16T18:43:53;14.90;99.90
56308;DHT22;42217;50.422;7.210;2022-10-16T18:46:39;14.90;99.90
56308;DHT22;42217;50.422;7.210;2022-10-16T18:49:05;15.10;99.90
56308;DHT22;42217;50.422;7.210;2022-10-16T18:51:34;15.10;99.90
56308;DHT22;42217;50.422;7.210;2022-10-16T18:54:03;15.20;99.90
56308;DHT22;42217;50.422;7.210;2022-10-16T18:56:30;15.20;99.90
56308;DHT22;42217;50.422;7.210;2022-10-16T18:58:58;15.30;99.90
56308;DHT22;42217;50.422;7.210;2022-10-16T19:01:26;15.40;99.90
56308;DHT22;42217;50.422;7.210;2022-10-16T19:03:55;15.40;99.90
56308;DHT22;42217;50.422;7.210;2022-10-16T19:06:21;15.40;99.90
56308;DHT22;42217;50.422;7.210;2022-10-16T19:08:49;15.40;99.90
56308;DHT22;42217;50.422;7.210;2022-10-16T19:11:21;15.40;99.90
56308;DHT22;42217;50.422;7.210;2022-10-16T19:13:48;15.50;99.90
56308;DHT22;42217;50.422;7.210;2022-10-16T19:16:23;15.40;99.90
56308;DHT22;42217;50.422;7.210;2022-10-16T19:18:52;15.40;99.90
56308;DHT22;42217;50.422;7.210;2022-10-16T19:21:19;15.50;99.90
56308;DHT22;42217;50.422;7.210;2022-10-16T19:23:45;15.50;99.90
56308;DHT22;42217;50.422;7.210;2022-10-16T19:26:16;15.60;99.90
56308;DHT22;42217;50.422;7.210;2022-10-16T19:28:43;15.90;99.90
56308;DHT22;42217;50.422;7.210;2022-10-16T19:31:12;16.10;99.90
56308;DHT22;42217;50.422;7.210;2022-10-16T19:33:39;16.20;99.90
56308;DHT22;42217;50.422;7.210;2022-10-16T19:36:24;16.30;99.90
56308;DHT22;42217;50.422;7.210;2022-10-16T19:38:55;16.30;99.90
56308;DHT22;42217;50.422;7.210;2022-10-16T19:41:23;16.30;99.90
56308;DHT22;42217;50.422;7.210;2022-10-16T19:43:50;16.30;99.90
56308;DHT22;42217;50.422;7.210;2022-10-16T19:46:18;16.30;99.90
56308;DHT22;42217;50.422;7.210;2022-10-16T19:48:44;16.30;99.90
56308;DHT22;42217;50.422;7.210;2022-10-16T19:51:13;16.40;99.90
56308;DHT22;42217;50.422;7.210;2022-10-16T19:53:40;16.40;99.90
56308;DHT22;42217;50.422;7.210;2022-10-16T19:56:17;16.40;99.90
56308;DHT22;42217;50.422;7.210;2022-10-16T19:58:47;16.30;99.90
56308;DHT22;42217;50.422;7.210;2022-10-16T20:01:15;16.30;99.90
56308;DHT22;42217;50.422;7.210;2022-10-16T20:03:46;16.30;99.90
56308;DHT22;42217;50.422;7.210;2022-10-16T20:06:13;16.30;99.90
56308;DHT22;42217;50.422;7.210;2022-10-16T20:08:40;16.30;99.90
56308;DHT22;42217;50.422;7.210;2022-10-16T20:11:11;16.30;99.90
56308;DHT22;42217;50.422;7.210;2022-10-16T20:13:37;16.30;99.90
56308;DHT22;42217;50.422;7.210;2022-10-16T20:16:03;16.30;99.90
56308;DHT22;42217;50.422;7.210;2022-10-16T20:18:29;16.30;99.90
56308;DHT22;42217;50.422;7.210;2022-10-16T20:20:55;16.30;99.90
56308;DHT22;42217;50.422;7.210;2022-10-16T20:23:21;16.30;99.90
56308;DHT22;42217;50.422;7.210;2022-10-16T20:25:49;16.30;99.90
56308;DHT22;42217;50.422;7.210;2022-10-16T20:28:20;16.30;99.90
56308;DHT22;42217;50.422;7.210;2022-10-16T20:30:48;16.30;99.90
56308;DHT22;42217;50.422;7.210;2022-10-16T20:33:16;16.30;99.90
56308;DHT22;42217;50.422;7.210;2022-10-16T20:35:50;16.30;99.90
56308;DHT22;42217;50.422;7.210;2022-10-16T20:38:17;16.30;99.90
56308;DHT22;42217;50.422;7.210;2022-10-16T20:40:45;16.20;99.90
56308;DHT22;42217;50.422;7.210;2022-10-16T20:43:16;16.10;99.90
56308;DHT22;42217;50.422;7.210;2022-10-16T20:45:42;16.00;99.90
56308;DHT22;42217;50.422;7.210;2022-10-16T20:48:09;16.00;99.90
56308;DHT22;42217;50.422;7.210;2022-10-16T20:50:38;15.90;99.90
56308;DHT22;42217;50.422;7.210;2022-10-16T20:53:05;15.80;99.90
56308;DHT22;42217;50.422;7.210;2022-10-16T20:55:36;15.80;99.90
56308;DHT22;42217;50.422;7.210;2022-10-16T20:58:03;15.60;99.90
56308;DHT22;42217;50.422;7.210;2022-10-16T21:00:29;15.50;99.90
56308;DHT22;42217;50.422;7.210;2022-10-16T21:02:55;15.40;99.90
56308;DHT22;42217;50.422;7.210;2022-10-16T21:05:21;15.40;99.90
56308;DHT22;42217;50.422;7.210;2022-10-16T21:07:47;15.40;99.90
56308;DHT22;42217;50.422;7.210;2022-10-16T21:10:13;15.40;99.90
56308;DHT22;42217;50.422;7.210;2022-10-16T21:12:39;15.40;99.90
56308;DHT22;42217;50.422;7.210;2022-10-16T21:15:05;15.40;99.90
56308;DHT22;42217;50.422;7.210;2022-10-16T21:17:31;15.40;99.90
56308;DHT22;42217;50.422;7.210;2022-10-16T21:19:57;15.60;99.90
56308;DHT22;42217;50.422;7.210;2022-10-16T21:22:22;15.70;99.90
56308;DHT22;42217;50.422;7.210;2022-10-16T21:24:48;15.80;99.90
56308;DHT22;42217;50.422;7.210;2022-10-16T21:27:14;16.00;99.90
56308;DHT22;42217;50.422;7.210;2022-10-16T21:29:40;16.00;99.90
56308;DHT22;42217;50.422;7.210;2022-10-16T21:32:06;16.00;99.90
56308;DHT22;42217;50.422;7.210;2022-10-16T21:34:33;16.00;99.90
56308;DHT22;42217;50.422;7.210;2022-10-16T21:36:58;16.10;99.90
56308;DHT22;42217;50.422;7.210;2022-10-16T21:39:24;16.20;99.90
56308;DHT22;42217;50.422;7.210;2022-10-16T21:41:50;16.20;99.90
56308;DHT22;42217;50.422;7.210;2022-10-16T21:44:17;16.10;99.90
56308;DHT22;42217;50.422;7.210;2022-10-16T21:46:45;16.20;99.90
56308;DHT22;42217;50.422;7.210;2022-10-16T21:49:14;16.10;99.90
56308;DHT22;42217;50.422;7.210;2022-10-16T21:51:44;16.10;99.90
56308;DHT22;42217;50.422;7.210;2022-10-16T21:54:13;16.20;99.90
56308;DHT22;42217;50.422;7.210;2022-10-16T21:56:39;16.10;99.90
56308;DHT22;42217;50.422;7.210;2022-10-16T21:59:05;16.10;99.90
56308;DHT22;42217;50.422;7.210;2022-10-16T22:01:31;16.10;99.90
56308;DHT22;42217;50.422;7.210;2022-10-16T22:03:57;16.10;99.90
56308;DHT22;42217;50.422;7.210;2022-10-16T22:06:25;16.00;99.90
56308;DHT22;42217;50.422;7.210;2022-10-16T22:08:53;15.80;99.90
56308;DHT22;42217;50.422;7.210;2022-10-16T22:11:31;15.80;99.90
56308;DHT22;42217;50.422;7.210;2022-10-16T22:14:05;15.90;99.90
56308;DHT22;42217;50.422;7.210;2022-10-16T22:16:31;16.00;99.90
56308;DHT22;42217;50.422;7.210;2022-10-16T22:18:58;15.90;99.90
56308;DHT22;42217;50.422;7.210;2022-10-16T22:21:25;16.00;99.90
56308;DHT22;42217;50.422;7.210;2022-10-16T22:23:51;16.00;99.90
56308;DHT22;42217;50.422;7.210;2022-10-16T22:26:17;15.90;99.90
56308;DHT22;42217;50.422;7.210;2022-10-16T22:28:43;15.90;99.90
56308;DHT22;42217;50.422;7.210;2022-10-16T22:31:11;16.00;99.90
56308;DHT22;42217;50.422;7.210;2022-10-16T22:33:37;16.10;99.90
56308;DHT22;42217;50.422;7.210;2022-10-16T22:36:04;16.30;99.90
56308;DHT22;42217;50.422;7.210;2022-10-16T22:38:34;16.50;99.90
56308;DHT22;42217;50.422;7.210;2022-10-16T22:41:09;16.60;99.90
56308;DHT22;42217;50.422;7.210;2022-10-16T22:43:36;16.70;99.90
56308;DHT22;42217;50.422;7.210;2022-10-16T22:46:07;16.70;99.90
56308;DHT22;42217;50.422;7.210;2022-10-16T22:48:34;16.80;99.90
56308;DHT22;42217;50.422;7.210;2022-10-16T22:51:00;16.90;99.90
56308;DHT22;42217;50.422;7.210;2022-10-16T22:53:26;16.90;99.90
56308;DHT22;42217;50.422;7.210;2022-10-16T22:55:51;16.90;99.90
56308;DHT22;42217;50.422;7.210;2022-10-16T22:58:17;16.90;99.90
56308;DHT22;42217;50.422;7.210;2022-10-16T23:00:44;16.80;99.90
56308;DHT22;42217;50.422;7.210;2022-10-16T23:03:10;16.80;99.90
56308;DHT22;42217;50.422;7.210;2022-10-16T23:05:40;16.70;99.90
56308;DHT22;42217;50.422;7.210;2022-10-16T23:08:06;16.70;99.90
56308;DHT22;42217;50.422;7.210;2022-10-16T23:10:33;16.60;99.90
56308;DHT22;42217;50.422;7.210;2022-10-16T23:12:59;16.70;99.90
56308;DHT22;42217;50.422;7.210;2022-10-16T23:15:25;16.70;99.90
56308;DHT22;42217;50.422;7.210;2022-10-16T23:17:50;16.70;99.90
56308;DHT22;42217;50.422;7.210;2022-10-16T23:20:16;16.80;99.90
56308;DHT22;42217;50.422;7.210;2022-10-16T23:22:42;16.80;99.90
56308;DHT22;42217;50.422;7.210;2022-10-16T23:25:07;16.80;99.90
56308;DHT22;42217;50.422;7.210;2022-10-16T23:27:34;16.90;99.90
56308;DHT22;42217;50.422;7.210;2022-10-16T23:29:59;16.80;99.90
56308;DHT22;42217;50.422;7.210;2022-10-16T23:32:25;16.80;99.90
56308;DHT22;42217;50.422;7.210;2022-10-16T23:34:51;16.70;99.90
56308;DHT22;42217;50.422;7.210;2022-10-16T23:37:16;16.80;99.90
56308;DHT22;42217;50.422;7.210;2022-10-16T23:39:42;16.70;99.90
56308;DHT22;42217;50.422;7.210;2022-10-16T23:42:08;16.90;99.90
56308;DHT22;42217;50.422;7.210;2022-10-16T23:44:33;16.80;99.90
56308;DHT22;42217;50.422;7.210;2022-10-16T23:46:59;16.80;99.90
56308;DHT22;42217;50.422;7.210;2022-10-16T23:49:25;16.70;99.90
56308;DHT22;42217;50.422;7.210;2022-10-16T23:51:51;16.60;99.90
56308;DHT22;42217;50.422;7.210;2022-10-16T23:54:16;16.50;99.90
56308;DHT22;42217;50.422;7.210;2022-10-16T23:56:42;16.40;99.90
56308;DHT22;42217;50.422;7.210;2022-10-16T23:59:08;16.40;99.90
